Time;durP1;ratioP1;P1;durP2;ratioP2;P2;SDS_P1;SDS_P2;PMS_P1;PMS_P2;Temp;Humidity;BMP_temperature;BMP_pressure;BME280_temperature;BME280_humidity;BME280_pressure;Samples;Min_cycle;Max_cycle;Signal;HPM_P1;HPM_P2
2022/09/27 00:00:42;;;;;;;3.95;1.95;;;14.60;93.50;;;;;;5016711;28;20022;-73
2022/09/27 00:03:11;;;;;;;6.80;2.90;;;14.60;93.50;;;;;;5010865;28;20034;-72
2022/09/27 00:05:37;;;;;;;4.50;2.78;;;14.60;93.50;;;;;;5010169;28;20038;-72
2022/09/27 00:08:03;;;;;;;5.13;2.88;;;14.60;93.50;;;;;;5011722;28;20037;-72
2022/09/27 00:10:30;;;;;;;3.58;1.83;;;14.60;93.50;;;;;;5004480;28;20036;-72
2022/09/27 00:12:56;;;;;;;3.70;2.35;;;14.60;93.60;;;;;;5011969;28;20036;-72
2022/09/27 00:15:22;;;;;;;4.07;2.95;;;14.60;93.60;;;;;;5000847;28;20034;-72
2022/09/27 00:17:50;;;;;;;6.43;3.05;;;14.60;93.60;;;;;;4996937;28;20052;-73
2022/09/27 00:20:18;;;;;;;8.57;4.05;;;14.60;93.60;;;;;;4996186;28;20452;-72
2022/09/27 00:22:43;;;;;;;5.22;2.67;;;14.50;93.60;;;;;;5011880;28;20072;-73
2022/09/27 00:25:09;;;;;;;4.43;2.78;;;14.50;93.60;;;;;;5003822;28;20034;-72
2022/09/27 00:27:34;;;;;;;4.95;2.53;;;14.50;93.60;;;;;;5011855;28;20441;-72
2022/09/27 00:30:00;;;;;;;5.38;3.05;;;14.50;93.60;;;;;;5003719;28;20088;-72
2022/09/27 00:32:26;;;;;;;6.25;3.50;;;14.50;93.60;;;;;;5011994;28;20166;-73
2022/09/27 00:34:51;;;;;;;4.88;2.15;;;14.50;93.60;;;;;;5004593;28;20022;-72
2022/09/27 00:37:17;;;;;;;2.95;1.75;;;14.50;93.60;;;;;;4994097;28;20523;-72
2022/09/27 00:39:43;;;;;;;4.95;3.20;;;14.50;93.60;;;;;;4993337;28;20097;-72
2022/09/27 00:42:11;;;;;;;3.47;2.00;;;14.50;93.60;;;;;;5010979;28;20100;-72
2022/09/27 00:44:40;;;;;;;3.30;1.98;;;14.50;93.60;;;;;;4999791;28;20046;-73
2022/09/27 00:47:26;;;;;;;4.13;2.17;;;14.50;93.60;;;;;;4998269;28;20033;-72
2022/09/27 00:49:58;;;;;;;5.03;2.22;;;14.50;93.50;;;;;;4998400;28;20066;-72
2022/09/27 00:52:31;;;;;;;5.43;3.22;;;14.50;93.50;;;;;;5000162;28;20053;-72
2022/09/27 00:55:05;;;;;;;3.25;1.90;;;14.50;93.60;;;;;;4992526;28;20096;-72
2022/09/27 00:57:33;;;;;;;2.80;1.85;;;14.50;93.60;;;;;;5011071;28;20567;-72
2022/09/27 01:00:08;;;;;;;3.10;2.13;;;14.50;93.60;;;;;;4980710;28;20096;-72
2022/09/27 01:02:38;;;;;;;2.70;2.30;;;14.50;93.60;;;;;;5000019;28;20030;-72
2022/09/27 01:05:07;;;;;;;5.80;4.10;;;14.50;93.60;;;;;;5009777;28;20056;-72
2022/09/27 01:07:33;;;;;;;4.95;3.75;;;14.40;93.70;;;;;;5014956;28;20404;-72
2022/09/27 01:10:00;;;;;;;3.78;2.53;;;14.40;93.70;;;;;;5010180;28;20493;-72
2022/09/27 01:12:44;;;;;;;7.13;3.55;;;14.40;93.70;;;;;;4997850;28;20037;-73
2022/09/27 01:15:28;;;;;;;5.15;2.78;;;14.40;93.70;;;;;;5009648;28;20097;-72
2022/09/27 01:18:18;;;;;;;3.13;2.10;;;14.30;93.70;;;;;;5006877;28;20038;-72
2022/09/27 01:21:12;;;;;;;3.17;1.90;;;14.30;93.70;;;;;;5013424;28;20172;-72
2022/09/27 01:23:52;;;;;;;4.40;2.97;;;14.30;93.60;;;;;;5022411;28;20041;-72
2022/09/27 01:26:45;;;;;;;4.45;2.70;;;14.30;93.70;;;;;;5006491;28;20062;-73
2022/09/27 01:29:36;;;;;;;6.20;3.90;;;14.30;93.60;;;;;;4987110;28;20130;-72
2022/09/27 01:32:05;;;;;;;6.05;3.30;;;14.30;93.70;;;;;;5010141;28;20030;-73
2022/09/27 01:34:49;;;;;;;3.25;2.47;;;14.30;93.70;;;;;;5011846;28;20028;-73
2022/09/27 01:37:36;;;;;;;3.53;2.35;;;14.30;93.70;;;;;;5005683;28;20026;-73
2022/09/27 01:40:27;;;;;;;4.63;2.22;;;14.30;93.80;;;;;;4987593;28;20054;-73
2022/09/27 01:43:23;;;;;;;4.30;2.25;;;14.30;93.70;;;;;;4994698;28;20060;-74
2022/09/27 01:46:03;;;;;;;3.10;2.13;;;14.30;93.70;;;;;;5002703;28;20037;-73
2022/09/27 01:48:34;;;;;;;4.43;2.47;;;14.30;93.70;;;;;;4996869;28;20027;-72
2022/09/27 01:51:16;;;;;;;3.70;2.42;;;14.30;93.70;;;;;;5011132;28;20496;-73
2022/09/27 01:54:06;;;;;;;3.28;1.85;;;14.30;93.70;;;;;;5007682;28;20041;-73
2022/09/27 01:56:46;;;;;;;3.45;2.50;;;14.30;93.60;;;;;;5011118;28;20045;-73
2022/09/27 01:59:18;;;;;;;3.63;1.95;;;14.30;93.70;;;;;;5013929;28;20030;-72
2022/09/27 02:01:47;;;;;;;3.97;1.90;;;14.30;93.70;;;;;;5011489;28;20041;-73
2022/09/27 02:04:19;;;;;;;3.88;2.03;;;14.30;93.60;;;;;;5013593;28;20408;-72
2022/09/27 02:06:49;;;;;;;3.10;2.50;;;14.40;93.60;;;;;;4996744;28;20377;-72
2022/09/27 02:09:38;;;;;;;5.35;2.22;;;14.40;93.70;;;;;;4982859;28;20366;-72
2022/09/27 02:12:07;;;;;;;2.60;1.83;;;14.40;93.60;;;;;;4998120;28;20533;-72
2022/09/27 02:14:40;;;;;;;2.38;1.75;;;14.40;93.60;;;;;;5000651;28;20356;-72
2022/09/27 02:17:20;;;;;;;2.78;1.95;;;14.40;93.60;;;;;;5012737;28;20056;-72
2022/09/27 02:20:12;;;;;;;4.18;1.95;;;14.40;93.60;;;;;;5008678;28;20358;-72
2022/09/27 02:22:46;;;;;;;3.22;1.77;;;14.40;93.60;;;;;;4994227;28;20023;-72
2022/09/27 02:25:42;;;;;;;4.13;2.30;;;14.40;93.50;;;;;;4998683;28;20392;-71
2022/09/27 02:28:32;;;;;;;3.03;2.03;;;14.40;93.50;;;;;;4993776;28;20026;-73
2022/09/27 02:30:57;;;;;;;3.10;2.00;;;14.50;93.60;;;;;;4998777;28;20466;-72
2022/09/27 02:33:59;;;;;;;2.50;1.90;;;14.50;93.60;;;;;;4976588;28;20034;-74
2022/09/27 02:36:24;;;;;;;2.47;1.75;;;14.50;93.60;;;;;;4958998;28;20549;-72
2022/09/27 02:38:50;;;;;;;2.85;2.15;;;14.50;93.50;;;;;;5005472;28;20121;-72
2022/09/27 02:41:19;;;;;;;2.40;1.83;;;14.50;93.60;;;;;;5012380;28;20469;-72
2022/09/27 02:43:51;;;;;;;2.40;1.60;;;14.50;93.50;;;;;;5012710;28;20088;-72
2022/09/27 02:46:37;;;;;;;3.03;2.00;;;14.60;93.50;;;;;;4993714;28;20544;-72
2022/09/27 02:49:15;;;;;;;3.22;2.30;;;14.60;93.50;;;;;;5010602;28;20025;-72
2022/09/27 02:52:22;;;;;;;4.65;2.28;;;14.60;93.50;;;;;;5009469;28;20596;-72
2022/09/27 02:55:13;;;;;;;2.88;1.80;;;14.60;93.60;;;;;;5006579;28;20420;-72
2022/09/27 02:57:51;;;;;;;2.85;1.90;;;14.60;93.50;;;;;;4985727;28;20037;-72
2022/09/27 03:00:25;;;;;;;2.17;1.60;;;14.60;93.50;;;;;;5007130;28;20066;-72
2022/09/27 03:03:02;;;;;;;4.00;1.73;;;14.60;93.50;;;;;;5010565;28;20022;-72
2022/09/27 03:06:09;;;;;;;2.15;1.40;;;14.60;93.50;;;;;;5005171;28;20043;-72
2022/09/27 03:08:37;;;;;;;3.75;2.00;;;14.60;93.50;;;;;;4914328;29;20543;-71
2022/09/27 03:11:03;;;;;;;2.88;1.83;;;14.60;93.50;;;;;;4980116;28;20074;-72
2022/09/27 03:13:30;;;;;;;2.85;2.10;;;14.60;93.50;;;;;;5003459;28;20026;-72
2022/09/27 03:15:56;;;;;;;3.05;2.00;;;14.60;93.50;;;;;;5006688;28;20088;-74
2022/09/27 03:18:22;;;;;;;4.20;2.25;;;14.70;93.50;;;;;;5012947;28;20125;-74
2022/09/27 03:20:47;;;;;;;4.03;2.22;;;14.70;93.50;;;;;;5003368;28;20038;-73
2022/09/27 03:23:14;;;;;;;3.30;1.77;;;14.70;93.50;;;;;;4985043;28;20022;-74
2022/09/27 03:25:40;;;;;;;2.95;1.75;;;14.60;93.50;;;;;;4994393;28;20030;-74
2022/09/27 03:28:06;;;;;;;4.28;2.10;;;14.60;93.50;;;;;;5006957;28;20029;-74
2022/09/27 03:30:31;;;;;;;1.98;1.52;;;14.70;93.50;;;;;;5010964;28;20489;-74
2022/09/27 03:32:57;;;;;;;3.60;1.83;;;14.60;93.50;;;;;;5010991;28;20191;-74
2022/09/27 03:35:23;;;;;;;3.28;1.80;;;14.70;93.40;;;;;;5009970;28;20599;-73
2022/09/27 03:37:48;;;;;;;3.35;2.42;;;14.70;93.40;;;;;;5012447;28;20194;-73
2022/09/27 03:40:14;;;;;;;4.35;1.90;;;14.70;93.50;;;;;;5011043;28;20029;-73
2022/09/27 03:42:40;;;;;;;3.20;2.10;;;14.70;93.40;;;;;;5012318;28;20026;-73
2022/09/27 03:45:06;;;;;;;4.00;1.80;;;14.60;93.30;;;;;;5009989;28;20034;-75
2022/09/27 03:47:32;;;;;;;5.13;2.15;;;14.70;93.40;;;;;;5011249;28;20033;-74
2022/09/27 03:49:57;;;;;;;3.22;2.00;;;14.70;93.50;;;;;;5009776;28;20092;-74
2022/09/27 03:52:23;;;;;;;5.18;2.03;;;14.70;93.50;;;;;;5012235;28;20026;-74
2022/09/27 03:54:48;;;;;;;6.07;1.92;;;14.70;93.60;;;;;;5008568;28;20048;-74
2022/09/27 03:57:14;;;;;;;3.10;2.20;;;14.60;93.60;;;;;;5012319;28;20022;-74
2022/09/27 03:59:40;;;;;;;3.38;1.80;;;14.60;93.80;;;;;;4993897;28;20030;-74
2022/09/27 04:02:06;;;;;;;5.03;2.05;;;14.60;93.80;;;;;;5011351;28;20492;-74
2022/09/27 04:04:31;;;;;;;3.55;2.15;;;14.60;93.90;;;;;;5004251;28;20037;-74
2022/09/27 04:06:57;;;;;;;2.90;1.90;;;14.60;93.90;;;;;;4992333;28;20054;-74
2022/09/27 04:09:23;;;;;;;3.28;2.13;;;14.60;94.00;;;;;;5004632;28;20041;-74
2022/09/27 04:11:49;;;;;;;2.85;1.95;;;14.60;94.00;;;;;;4992550;28;20069;-74
2022/09/27 04:14:15;;;;;;;2.35;1.65;;;14.60;94.10;;;;;;5006026;28;20061;-74
2022/09/27 04:16:40;;;;;;;3.63;1.90;;;14.60;94.20;;;;;;5008722;28;20022;-74
2022/09/27 04:19:07;;;;;;;3.35;2.00;;;14.60;94.30;;;;;;4985539;28;20823;-74
2022/09/27 04:21:33;;;;;;;4.38;2.25;;;14.60;94.40;;;;;;4998470;28;20539;-74
2022/09/27 04:23:59;;;;;;;3.20;2.05;;;14.50;94.40;;;;;;5009259;28;20142;-74
2022/09/27 04:26:25;;;;;;;2.45;1.92;;;14.50;94.50;;;;;;4994807;28;20113;-74
2022/09/27 04:28:52;;;;;;;3.88;1.92;;;14.50;94.60;;;;;;5010192;28;20072;-73
2022/09/27 04:31:18;;;;;;;4.70;2.00;;;14.50;94.70;;;;;;4993275;28;20030;-73
2022/09/27 04:33:44;;;;;;;2.70;1.88;;;14.50;94.80;;;;;;5003945;28;20033;-73
2022/09/27 04:36:25;;;;;;;2.60;2.08;;;14.50;94.90;;;;;;5010675;28;20026;-73
2022/09/27 04:38:57;;;;;;;4.25;2.20;;;14.50;94.90;;;;;;5011881;28;20061;-73
2022/09/27 04:41:23;;;;;;;3.78;2.03;;;14.40;95.00;;;;;;5013546;28;20030;-73
2022/09/27 04:43:54;;;;;;;5.90;2.20;;;14.40;95.10;;;;;;5015708;28;20129;-73
2022/09/27 04:46:20;;;;;;;3.88;2.10;;;14.40;95.20;;;;;;5011039;28;20034;-72
2022/09/27 04:48:47;;;;;;;3.80;2.25;;;14.40;95.30;;;;;;5009280;28;20041;-73
2022/09/27 04:51:16;;;;;;;2.85;1.90;;;14.40;95.40;;;;;;5007555;28;20033;-73
2022/09/27 04:53:44;;;;;;;5.25;2.05;;;14.40;95.60;;;;;;5015273;28;20029;-73
2022/09/27 04:56:11;;;;;;;6.57;2.85;;;14.40;95.60;;;;;;4996675;28;20042;-72
2022/09/27 04:58:37;;;;;;;3.00;1.75;;;14.40;95.80;;;;;;5013902;28;20421;-72
2022/09/27 05:01:04;;;;;;;2.88;2.10;;;14.30;95.90;;;;;;4998424;28;20033;-72
2022/09/27 05:03:30;;;;;;;3.05;2.42;;;14.30;96.00;;;;;;5006031;28;20045;-72
2022/09/27 05:05:56;;;;;;;3.00;2.03;;;14.30;96.10;;;;;;4996239;28;20061;-72
2022/09/27 05:08:22;;;;;;;3.17;2.13;;;14.30;96.20;;;;;;5015222;28;20072;-72
2022/09/27 05:10:48;;;;;;;2.92;1.90;;;14.30;96.30;;;;;;5000897;28;20061;-73
2022/09/27 05:13:14;;;;;;;3.15;2.25;;;14.20;96.30;;;;;;5002195;28;20425;-73
2022/09/27 05:15:40;;;;;;;3.28;1.63;;;14.20;96.50;;;;;;5010257;28;20030;-73
2022/09/27 05:18:09;;;;;;;3.30;2.30;;;14.20;96.50;;;;;;5012126;28;20029;-72
2022/09/27 05:20:36;;;;;;;4.22;2.22;;;14.20;96.60;;;;;;5002466;28;20034;-72
2022/09/27 05:23:03;;;;;;;4.25;2.20;;;14.20;96.70;;;;;;5011123;28;20113;-72
2022/09/27 05:25:30;;;;;;;2.50;2.00;;;14.20;96.80;;;;;;5003815;28;20093;-72
2022/09/27 05:27:56;;;;;;;3.53;1.85;;;14.20;96.80;;;;;;5013762;28;20116;-72
2022/09/27 05:30:22;;;;;;;5.60;2.45;;;14.20;96.90;;;;;;5008884;28;20053;-73
2022/09/27 05:32:48;;;;;;;2.88;2.25;;;14.20;97.00;;;;;;4996639;28;20013;-73
2022/09/27 05:35:17;;;;;;;2.88;2.13;;;14.20;97.10;;;;;;5009348;28;20022;-73
2022/09/27 05:37:42;;;;;;;3.83;2.00;;;14.20;97.30;;;;;;5013307;28;20489;-72
2022/09/27 05:40:08;;;;;;;3.03;2.00;;;14.10;97.30;;;;;;5012657;28;20040;-73
2022/09/27 05:42:37;;;;;;;3.40;2.28;;;14.10;97.50;;;;;;5014433;28;20025;-73
2022/09/27 05:45:05;;;;;;;2.85;2.17;;;14.10;97.60;;;;;;5007513;28;20508;-73
2022/09/27 05:47:31;;;;;;;4.53;2.15;;;14.10;97.70;;;;;;4986935;28;20076;-72
2022/09/27 05:49:58;;;;;;;3.10;2.03;;;14.10;97.80;;;;;;4999840;28;20026;-72
2022/09/27 05:52:24;;;;;;;3.90;2.22;;;14.10;97.90;;;;;;5002453;28;20113;-73
2022/09/27 05:54:49;;;;;;;2.67;2.10;;;14.10;98.00;;;;;;4995430;28;20093;-70
2022/09/27 05:57:15;;;;;;;2.95;1.90;;;14.10;98.10;;;;;;5012094;28;20030;-71
2022/09/27 05:59:40;;;;;;;6.38;2.20;;;14.10;98.20;;;;;;5010525;28;20030;-73
2022/09/27 06:02:11;;;;;;;3.80;1.77;;;14.10;98.30;;;;;;5011051;28;20030;-73
2022/09/27 06:04:38;;;;;;;4.00;2.13;;;14.10;98.40;;;;;;5011003;28;20468;-66
2022/09/27 06:07:04;;;;;;;7.82;2.60;;;14.10;98.40;;;;;;5006705;28;20076;-67
2022/09/27 06:09:29;;;;;;;4.95;2.92;;;14.10;98.50;;;;;;5007940;28;20436;-67
2022/09/27 06:11:56;;;;;;;3.22;2.25;;;14.10;98.60;;;;;;5006803;28;20046;-67
2022/09/27 06:14:22;;;;;;;3.15;2.10;;;14.00;98.60;;;;;;5013142;28;20038;-67
2022/09/27 06:16:48;;;;;;;5.85;2.25;;;14.10;98.70;;;;;;4994250;28;20065;-67
2022/09/27 06:19:14;;;;;;;4.50;2.22;;;14.10;98.80;;;;;;4997078;28;20062;-67
2022/09/27 06:21:39;;;;;;;4.97;2.28;;;14.00;98.80;;;;;;5005528;28;20023;-67
2022/09/27 06:24:06;;;;;;;2.92;2.10;;;14.10;98.90;;;;;;4995836;28;20034;-66
2022/09/27 06:26:32;;;;;;;3.15;2.47;;;14.10;99.00;;;;;;4997203;28;20077;-66
2022/09/27 06:28:58;;;;;;;4.60;2.80;;;14.00;99.00;;;;;;5006419;28;20107;-67
2022/09/27 06:31:24;;;;;;;4.85;2.33;;;14.00;99.10;;;;;;4998051;28;20465;-67
2022/09/27 06:33:49;;;;;;;4.43;2.50;;;14.10;99.30;;;;;;5011252;28;20033;-67
2022/09/27 06:36:15;;;;;;;5.57;2.38;;;14.10;99.30;;;;;;5013744;28;20030;-67
2022/09/27 06:38:41;;;;;;;4.95;2.50;;;14.10;99.30;;;;;;5012149;28;20033;-66
2022/09/27 06:41:07;;;;;;;4.60;2.70;;;14.10;99.30;;;;;;5012528;28;20025;-67
2022/09/27 06:43:33;;;;;;;7.35;2.50;;;14.10;99.40;;;;;;4997469;28;20042;-66
2022/09/27 06:46:03;;;;;;;4.00;2.30;;;14.10;99.40;;;;;;4994690;28;20470;-67
2022/09/27 06:48:30;;;;;;;6.22;2.50;;;14.10;99.50;;;;;;4997799;28;20030;-67
2022/09/27 06:50:56;;;;;;;4.40;2.50;;;14.20;99.50;;;;;;4993583;28;20039;-67
2022/09/27 06:53:23;;;;;;;4.15;2.60;;;14.20;99.50;;;;;;4997350;28;20034;-67
2022/09/27 06:55:50;;;;;;;8.90;3.03;;;14.20;99.50;;;;;;4990223;28;20056;-66
2022/09/27 07:01:00;;;;;;;5.00;3.10;;;14.20;99.60;;;;;;5009247;28;20030;-66
2022/09/27 07:03:31;;;;;;;5.47;2.60;;;14.20;99.60;;;;;;4994264;28;20620;-67
2022/09/27 07:06:02;;;;;;;4.47;2.78;;;14.20;99.60;;;;;;5007489;28;20037;-66
2022/09/27 07:08:28;;;;;;;4.00;2.67;;;14.20;99.60;;;;;;5006813;28;20030;-67
2022/09/27 07:11:06;;;;;;;8.52;2.75;;;14.20;99.70;;;;;;5001786;28;20027;-67
2022/09/27 07:13:33;;;;;;;4.88;3.03;;;14.20;99.70;;;;;;5004329;28;20496;-66
2022/09/27 07:16:02;;;;;;;3.67;2.78;;;14.20;99.80;;;;;;5007614;28;20052;-67
2022/09/27 07:18:28;;;;;;;5.28;2.75;;;14.20;99.90;;;;;;4998462;28;20027;-67
2022/09/27 07:20:54;;;;;;;6.88;3.78;;;14.30;99.90;;;;;;5005405;28;20033;-67
2022/09/27 07:23:19;;;;;;;5.97;3.10;;;14.30;99.90;;;;;;5011494;28;20033;-67
2022/09/27 07:25:46;;;;;;;4.68;2.97;;;14.30;99.90;;;;;;5011729;28;20848;-67
2022/09/27 07:28:16;;;;;;;7.05;3.08;;;14.40;99.90;;;;;;5004433;28;20027;-67
2022/09/27 07:30:43;;;;;;;4.20;3.15;;;14.40;99.90;;;;;;5011734;28;20053;-67
2022/09/27 07:33:09;;;;;;;5.53;3.08;;;14.40;99.90;;;;;;5007681;28;20487;-67
2022/09/27 07:35:40;;;;;;;3.85;3.00;;;14.50;99.90;;;;;;5012166;28;20072;-67
2022/09/27 07:38:09;;;;;;;4.75;2.90;;;14.50;99.90;;;;;;5002202;28;20030;-67
2022/09/27 07:40:36;;;;;;;5.00;3.08;;;14.50;99.90;;;;;;5001534;28;20420;-66
2022/09/27 07:43:03;;;;;;;4.95;3.30;;;14.50;99.90;;;;;;5002950;28;20026;-67
2022/09/27 07:45:30;;;;;;;4.05;2.83;;;14.50;99.90;;;;;;4997953;28;20042;-67
2022/09/27 07:47:56;;;;;;;5.85;2.85;;;14.60;99.90;;;;;;4999516;28;20490;-67
2022/09/27 07:50:21;;;;;;;6.35;3.25;;;14.60;99.90;;;;;;5009163;28;20057;-66
2022/09/27 07:52:51;;;;;;;7.38;3.17;;;14.60;99.90;;;;;;5004443;28;20060;-67
2022/09/27 07:55:18;;;;;;;4.03;2.40;;;14.60;99.90;;;;;;5006626;28;20489;-67
2022/09/27 07:57:44;;;;;;;7.20;2.85;;;14.70;99.90;;;;;;4994351;28;20049;-67
2022/09/27 08:00:15;;;;;;;6.35;3.08;;;14.70;99.90;;;;;;5004317;28;20105;-68
2022/09/27 08:02:42;;;;;;;5.13;3.03;;;14.80;99.90;;;;;;5006349;28;20114;-68
2022/09/27 08:05:08;;;;;;;5.45;2.72;;;14.70;99.90;;;;;;5003786;28;20380;-67
2022/09/27 08:07:35;;;;;;;4.55;2.70;;;14.70;99.90;;;;;;5003013;28;20060;-68
2022/09/27 08:10:00;;;;;;;7.45;3.10;;;14.70;99.90;;;;;;4993861;28;20042;-68
2022/09/27 08:12:27;;;;;;;5.03;2.78;;;14.70;99.90;;;;;;5003735;28;20385;-68
2022/09/27 08:14:55;;;;;;;7.63;2.85;;;14.70;99.90;;;;;;5005231;28;20026;-68
2022/09/27 08:17:21;;;;;;;5.25;2.72;;;14.70;99.90;;;;;;5012971;28;20101;-68
2022/09/27 08:19:48;;;;;;;5.68;2.67;;;14.70;99.90;;;;;;5012537;28;20157;-68
2022/09/27 08:22:15;;;;;;;3.33;2.30;;;14.70;99.90;;;;;;5014820;28;20528;-68
2022/09/27 08:24:41;;;;;;;3.67;2.47;;;14.70;99.90;;;;;;5005349;28;20515;-68
2022/09/27 08:27:07;;;;;;;7.20;3.67;;;14.70;99.90;;;;;;5014786;28;20048;-67
2022/09/27 08:29:34;;;;;;;3.20;2.40;;;14.70;99.90;;;;;;4997336;28;20030;-68
2022/09/27 08:31:59;;;;;;;3.33;2.35;;;14.70;99.90;;;;;;5005605;28;20033;-67
2022/09/27 08:34:27;;;;;;;3.40;2.42;;;14.70;99.90;;;;;;5012916;28;20485;-68
2022/09/27 08:36:54;;;;;;;5.65;2.50;;;14.70;99.90;;;;;;5013703;28;20527;-67
2022/09/27 08:39:20;;;;;;;3.78;2.20;;;14.70;99.90;;;;;;5001714;28;20037;-68
2022/09/27 08:41:49;;;;;;;3.55;2.25;;;14.70;99.90;;;;;;5013626;28;20121;-68
2022/09/27 08:44:49;;;;;;;3.80;2.00;;;14.70;99.90;;;;;;4999562;28;20549;-68
2022/09/27 08:47:16;;;;;;;2.72;1.88;;;14.70;99.90;;;;;;4996324;28;20034;-68
2022/09/27 08:49:53;;;;;;;12.93;3.50;;;14.70;99.90;;;;;;5001291;28;20038;-67
2022/09/27 08:52:26;;;;;;;4.78;2.70;;;14.80;99.90;;;;;;4994980;28;20470;-67
2022/09/27 08:54:54;;;;;;;5.07;2.47;;;14.80;99.90;;;;;;5012440;28;20042;-67
2022/09/27 08:57:22;;;;;;;8.02;2.72;;;14.80;99.90;;;;;;5015189;28;20034;-68
2022/09/27 09:00:03;;;;;;;7.07;2.53;;;14.80;99.90;;;;;;5005202;28;20534;-67
2022/09/27 09:02:28;;;;;;;4.13;2.22;;;14.80;99.90;;;;;;5014161;28;20376;-66
2022/09/27 09:05:00;;;;;;;7.18;2.63;;;14.80;99.90;;;;;;5010987;28;20038;-67
2022/09/27 09:07:55;;;;;;;5.00;2.08;;;14.80;99.90;;;;;;5003219;28;20112;-67
2022/09/27 09:13:53;;;;;;;5.25;2.33;;;14.90;99.90;;;;;;5004119;28;20069;-67
2022/09/27 09:16:52;;;;;;;2.80;2.15;;;14.90;99.90;;;;;;5003259;28;20072;-67
2022/09/27 09:19:25;;;;;;;4.07;2.42;;;14.90;99.90;;;;;;5010670;28;20034;-66
2022/09/27 09:22:15;;;;;;;3.30;2.28;;;14.90;99.90;;;;;;4998697;28;20175;-66
2022/09/27 09:24:46;;;;;;;4.10;2.42;;;15.00;99.90;;;;;;5010642;28;20092;-67
2022/09/27 09:27:58;;;;;;;4.88;2.53;;;15.00;99.90;;;;;;5013842;28;20072;-66
2022/09/27 09:30:34;;;;;;;3.22;2.15;;;15.00;99.90;;;;;;5001593;28;20037;-67
2022/09/27 09:33:22;;;;;;;3.30;2.13;;;15.00;99.90;;;;;;5023589;28;20549;-67
2022/09/27 09:35:49;;;;;;;2.90;2.13;;;15.10;99.90;;;;;;4993289;28;20106;-67
2022/09/27 09:38:40;;;;;;;4.43;2.20;;;15.10;99.90;;;;;;5014116;28;20078;-67
2022/09/27 09:41:40;;;;;;;4.50;2.47;;;15.10;99.90;;;;;;5003303;28;20057;-66
2022/09/27 09:44:23;;;;;;;3.42;2.47;;;15.20;99.90;;;;;;4995607;28;20081;-67
2022/09/27 09:46:53;;;;;;;3.38;2.30;;;15.20;99.90;;;;;;5005103;28;20026;-66
2022/09/27 09:49:33;;;;;;;3.75;2.08;;;15.30;99.90;;;;;;5008007;28;20034;-66
2022/09/27 09:52:04;;;;;;;4.72;2.17;;;15.30;99.90;;;;;;5013507;28;20026;-66
2022/09/27 09:54:39;;;;;;;6.25;2.30;;;15.40;99.90;;;;;;5010996;28;20042;-67
2022/09/27 09:57:19;;;;;;;4.45;2.20;;;15.40;99.90;;;;;;5011821;28;20260;-66
2022/09/27 10:00:11;;;;;;;4.15;2.40;;;15.40;99.90;;;;;;5010300;28;20036;-66
2022/09/27 10:02:40;;;;;;;3.95;2.30;;;15.40;99.90;;;;;;5011287;28;20030;-67
2022/09/27 10:05:14;;;;;;;3.20;2.40;;;15.50;99.90;;;;;;5017020;28;20091;-66
2022/09/27 10:07:40;;;;;;;5.03;2.60;;;15.60;99.90;;;;;;5017979;28;20029;-67
2022/09/27 10:10:10;;;;;;;2.80;2.28;;;15.60;99.90;;;;;;5007211;28;20030;-67
2022/09/27 10:12:36;;;;;;;3.55;2.35;;;15.70;99.90;;;;;;5013489;28;20030;-67
2022/09/27 10:15:04;;;;;;;3.95;2.38;;;15.80;99.90;;;;;;5005464;28;20040;-67
2022/09/27 10:17:43;;;;;;;5.97;2.40;;;15.90;99.90;;;;;;5007158;28;20084;-67
2022/09/27 10:20:26;;;;;;;4.18;2.70;;;15.90;99.90;;;;;;5008561;28;20042;-66
2022/09/27 10:22:58;;;;;;;7.05;2.95;;;16.00;99.90;;;;;;5004281;28;20033;-66
2022/09/27 10:25:24;;;;;;;5.40;2.50;;;16.20;99.90;;;;;;5003840;28;20120;-65
2022/09/27 10:27:53;;;;;;;4.38;2.50;;;16.20;99.90;;;;;;5012383;28;20117;-65
2022/09/27 10:30:24;;;;;;;3.15;2.33;;;16.20;99.80;;;;;;5012451;28;20069;-66
2022/09/27 10:32:53;;;;;;;3.80;2.40;;;16.20;99.70;;;;;;5013126;28;20030;-66
2022/09/27 10:35:20;;;;;;;2.90;2.20;;;16.20;99.70;;;;;;5003658;28;20040;-66
2022/09/27 10:37:45;;;;;;;3.33;2.45;;;16.20;99.70;;;;;;5012255;28;20041;-66
2022/09/27 10:40:29;;;;;;;5.72;2.47;;;16.20;99.60;;;;;;5011150;28;20034;-66
2022/09/27 10:42:54;;;;;;;3.42;2.30;;;16.20;99.60;;;;;;5002165;28;20032;-66
2022/09/27 10:45:32;;;;;;;3.85;2.55;;;16.30;99.50;;;;;;5005591;28;20053;-66
2022/09/27 10:48:01;;;;;;;6.20;2.80;;;16.30;99.50;;;;;;5011279;28;20037;-67
2022/09/27 10:50:30;;;;;;;3.55;2.60;;;16.40;99.50;;;;;;5002535;28;20038;-67
2022/09/27 10:53:17;;;;;;;4.22;2.20;;;16.40;99.50;;;;;;4995137;28;20033;-66
2022/09/27 10:55:50;;;;;;;3.35;2.25;;;16.60;99.60;;;;;;5004809;28;20042;-67
2022/09/27 10:58:34;;;;;;;2.53;2.03;;;16.70;99.60;;;;;;5009304;28;20392;-67
2022/09/27 11:01:04;;;;;;;3.30;2.10;;;16.90;99.50;;;;;;5012367;28;20036;-67
2022/09/27 11:03:32;;;;;;;5.15;2.92;;;17.10;99.40;;;;;;5010614;28;20044;-67
2022/09/27 11:05:58;;;;;;;3.20;2.00;;;17.30;99.20;;;;;;5013389;28;20038;-65
2022/09/27 11:08:32;;;;;;;3.33;2.30;;;17.40;99.00;;;;;;5009791;28;20057;-67
2022/09/27 11:11:09;;;;;;;2.88;2.30;;;17.40;98.70;;;;;;4994757;28;20068;-68
2022/09/27 11:13:36;;;;;;;6.40;2.67;;;17.40;98.50;;;;;;5008701;28;20054;-67
2022/09/27 11:16:31;;;;;;;4.32;2.30;;;17.30;98.40;;;;;;5012403;28;20033;-67
2022/09/27 11:19:15;;;;;;;4.30;2.10;;;17.30;98.10;;;;;;5008245;28;20037;-66
2022/09/27 11:22:14;;;;;;;4.07;2.13;;;17.10;98.00;;;;;;5011975;28;20030;-67
2022/09/27 11:24:59;;;;;;;3.90;2.22;;;17.00;98.00;;;;;;4989184;28;20057;-67
2022/09/27 11:27:37;;;;;;;4.07;2.70;;;16.90;98.00;;;;;;4987451;28;20034;-68
2022/09/27 11:30:14;;;;;;;6.25;3.35;;;16.80;98.20;;;;;;5000239;28;20619;-68
2022/09/27 11:32:59;;;;;;;5.00;2.72;;;16.70;98.40;;;;;;5012736;28;20034;-68
2022/09/27 11:35:57;;;;;;;5.82;2.75;;;16.70;98.50;;;;;;5009275;28;20029;-67
2022/09/27 11:38:51;;;;;;;3.88;2.65;;;16.60;98.40;;;;;;5010980;28;20313;-70
2022/09/27 11:41:22;;;;;;;3.53;2.58;;;16.60;98.50;;;;;;4992712;28;20026;-69
2022/09/27 11:43:57;;;;;;;5.90;3.20;;;16.60;98.60;;;;;;5001495;28;20038;-69
2022/09/27 11:46:36;;;;;;;5.10;2.28;;;16.60;98.50;;;;;;5007895;28;20030;-69
2022/09/27 11:49:20;;;;;;;3.78;2.80;;;16.60;98.40;;;;;;5006663;28;20030;-70
2022/09/27 11:52:12;;;;;;;4.97;2.60;;;16.50;98.40;;;;;;5008629;28;20029;-69
2022/09/27 11:55:11;;;;;;;3.13;2.20;;;16.50;98.30;;;;;;4992252;28;20046;-69
2022/09/27 11:57:59;;;;;;;2.95;1.55;;;16.40;98.10;;;;;;4985499;28;20041;-69
2022/09/27 12:00:54;;;;;;;1.70;1.20;;;16.20;97.60;;;;;;4996083;28;20038;-70
2022/09/27 12:03:48;;;;;;;2.75;1.27;;;15.90;97.50;;;;;;4965003;28;20031;-70
2022/09/27 12:06:24;;;;;;;3.33;1.42;;;15.70;97.70;;;;;;5006936;28;20041;-69
2022/09/27 12:09:15;;;;;;;3.53;1.40;;;15.50;97.70;;;;;;5008402;28;20034;-68
2022/09/27 12:11:56;;;;;;;2.47;1.42;;;15.30;97.80;;;;;;4992306;28;20035;-69
2022/09/27 12:14:27;;;;;;;2.13;1.20;;;15.20;97.90;;;;;;4995912;28;20022;-69
2022/09/27 12:16:54;;;;;;;1.90;1.30;;;15.00;98.00;;;;;;5011159;28;20092;-69
2022/09/27 12:19:29;;;;;;;4.30;1.80;;;14.90;98.20;;;;;;5000114;28;20042;-69
2022/09/27 12:21:58;;;;;;;3.85;1.88;;;14.90;98.40;;;;;;5011752;28;20025;-69
2022/09/27 12:24:24;;;;;;;4.25;1.98;;;14.80;98.60;;;;;;5005598;28;20053;-68
2022/09/27 12:26:58;;;;;;;3.78;2.08;;;14.80;98.70;;;;;;4994308;28;20030;-68
2022/09/27 12:29:26;;;;;;;4.40;2.42;;;14.70;98.90;;;;;;5001102;28;20053;-68
2022/09/27 12:32:05;;;;;;;5.85;2.38;;;14.70;99.00;;;;;;5012107;28;20167;-68
2022/09/27 12:34:55;;;;;;;3.58;2.03;;;14.70;99.20;;;;;;4999278;28;20582;-68
2022/09/27 12:37:59;;;;;;;3.00;1.90;;;14.80;99.30;;;;;;5011103;28;20133;-69
2022/09/27 12:40:33;;;;;;;3.25;2.08;;;14.90;99.40;;;;;;4970624;28;20505;-69
2022/09/27 12:43:10;;;;;;;3.03;1.77;;;15.00;99.50;;;;;;4998391;28;20092;-68
2022/09/27 12:45:55;;;;;;;4.20;2.15;;;15.20;99.70;;;;;;4997552;28;20100;-68
2022/09/27 12:48:42;;;;;;;2.37;1.57;;;15.20;99.80;;;;;;5011589;28;20049;-68
2022/09/27 12:51:11;;;;;;;2.90;1.70;;;15.50;99.70;;;;;;4999325;28;20293;-69
2022/09/27 12:53:52;;;;;;;3.75;1.95;;;15.60;99.90;;;;;;5010990;28;20042;-69
2022/09/27 12:56:34;;;;;;;3.78;1.95;;;15.70;99.90;;;;;;5000743;28;20049;-69
2022/09/27 12:59:26;;;;;;;3.38;1.83;;;15.80;99.80;;;;;;5007831;28;20397;-69
2022/09/27 13:02:02;;;;;;;2.67;1.90;;;15.90;99.80;;;;;;5004269;28;20595;-69
2022/09/27 13:04:55;;;;;;;3.33;1.65;;;16.00;99.70;;;;;;4997555;28;21981;-69
2022/09/27 13:07:29;;;;;;;5.10;2.40;;;16.10;99.70;;;;;;4995148;28;20491;-69
2022/09/27 13:10:19;;;;;;;2.25;1.55;;;16.20;99.50;;;;;;5003463;28;20366;-69
2022/09/27 13:12:50;;;;;;;3.53;2.13;;;16.20;99.50;;;;;;5015292;28;20034;-70
2022/09/27 13:15:27;;;;;;;3.00;2.15;;;16.30;99.40;;;;;;4992298;28;20398;-69
2022/09/27 13:17:55;;;;;;;2.97;2.05;;;16.40;99.30;;;;;;5008217;28;20069;-69
2022/09/27 13:20:30;;;;;;;3.10;1.98;;;16.40;99.20;;;;;;4996734;28;20034;-69
2022/09/27 13:23:07;;;;;;;3.85;1.70;;;16.40;99.00;;;;;;4997914;28;20030;-69